sensor_id;sensor_type;location;lat;lon;timestamp;pressure;altitude;pressure_sealevel;temperature;humidity
42669;BME280;29384;42.028;21.388;2022-08-02T00:00:10;98365.44;;;20.47;65.67
42669;BME280;29384;42.028;21.388;2022-08-02T00:02:39;98379.03;;;20.37;66.23
42669;BME280;29384;42.028;21.388;2022-08-02T00:05:06;98373.25;;;20.26;66.34
42669;BME280;29384;42.028;21.388;2022-08-02T00:07:32;98373.41;;;20.30;66.80
42669;BME280;29384;42.028;21.388;2022-08-02T00:09:57;98379.66;;;20.43;66.48
42669;BME280;29384;42.028;21.388;2022-08-02T00:12:23;98376.41;;;20.55;66.17
42669;BME280;29384;42.028;21.388;2022-08-02T00:14:49;98372.47;;;20.52;66.38
42669;BME280;29384;42.028;21.388;2022-08-02T00:17:14;98374.66;;;20.33;66.74
42669;BME280;29384;42.028;21.388;2022-08-02T00:23:01;98372.63;;;20.21;66.91
42669;BME280;29384;42.028;21.388;2022-08-02T00:25:27;98357.81;;;20.28;66.89
42669;BME280;29384;42.028;21.388;2022-08-02T00:27:52;98375.28;;;20.38;67.23
42669;BME280;29384;42.028;21.388;2022-08-02T00:30:18;98365.28;;;20.00;67.63
42669;BME280;29384;42.028;21.388;2022-08-02T00:32:43;98370.28;;;19.93;67.44
42669;BME280;29384;42.028;21.388;2022-08-02T00:35:09;98364.97;;;19.93;67.87
42669;BME280;29384;42.028;21.388;2022-08-02T00:37:38;98366.69;;;19.98;68.64
42669;BME280;29384;42.028;21.388;2022-08-02T00:40:04;98363.09;;;19.94;68.75
42669;BME280;29384;42.028;21.388;2022-08-02T00:42:29;98368.88;;;20.04;68.05
42669;BME280;29384;42.028;21.388;2022-08-02T00:44:55;98370.28;;;20.11;67.46
42669;BME280;29384;42.028;21.388;2022-08-02T00:47:20;98365.13;;;20.05;67.68
42669;BME280;29384;42.028;21.388;2022-08-02T00:53:09;98370.09;;;19.98;67.93
42669;BME280;29384;42.028;21.388;2022-08-02T00:55:35;98365.25;;;19.92;68.45
42669;BME280;29384;42.028;21.388;2022-08-02T00:58:02;98365.25;;;19.83;69.06
42669;BME280;29384;42.028;21.388;2022-08-02T01:00:27;98353.38;;;19.80;69.62
42669;BME280;29384;42.028;21.388;2022-08-02T01:02:53;98361.47;;;19.67;70.13
42669;BME280;29384;42.028;21.388;2022-08-02T01:05:18;98358.84;;;19.75;68.79
42669;BME280;29384;42.028;21.388;2022-08-02T01:07:44;98357.44;;;19.78;68.86
42669;BME280;29384;42.028;21.388;2022-08-02T01:10:09;98358.22;;;19.87;67.63
42669;BME280;29384;42.028;21.388;2022-08-02T01:12:35;98353.88;;;19.91;66.98
42669;BME280;29384;42.028;21.388;2022-08-02T01:15:06;98358.69;;;19.89;66.98
42669;BME280;29384;42.028;21.388;2022-08-02T01:24:34;98350.72;;;19.89;66.25
42669;BME280;29384;42.028;21.388;2022-08-02T01:29:40;98345.91;;;19.83;66.47
42669;BME280;29384;42.028;21.388;2022-08-02T01:32:15;98351.53;;;19.98;66.41
42669;BME280;29384;42.028;21.388;2022-08-02T01:34:47;98348.88;;;19.90;66.71
42669;BME280;29384;42.028;21.388;2022-08-02T01:37:19;98346.38;;;19.76;67.53
42669;BME280;29384;42.028;21.388;2022-08-02T01:39:49;98338.97;;;19.64;67.86
42669;BME280;29384;42.028;21.388;2022-08-02T01:42:17;98349.59;;;19.64;68.54
42669;BME280;29384;42.028;21.388;2022-08-02T01:44:44;98342.06;;;19.57;69.33
42669;BME280;29384;42.028;21.388;2022-08-02T01:47:21;98350.28;;;19.39;69.73
42669;BME280;29384;42.028;21.388;2022-08-02T01:49:51;98342.59;;;19.20;70.96
42669;BME280;29384;42.028;21.388;2022-08-02T01:52:19;98352.69;;;19.18;71.37
42669;BME280;29384;42.028;21.388;2022-08-02T01:54:49;98360.22;;;19.24;71.34
42669;BME280;29384;42.028;21.388;2022-08-02T01:57:15;98350.88;;;19.27;71.50
42669;BME280;29384;42.028;21.388;2022-08-02T01:59:43;98351.53;;;19.41;70.99
42669;BME280;29384;42.028;21.388;2022-08-02T02:02:11;98353.03;;;19.25;70.86
42669;BME280;29384;42.028;21.388;2022-08-02T02:04:39;98349.84;;;19.05;71.35
42669;BME280;29384;42.028;21.388;2022-08-02T02:07:06;98342.84;;;19.09;70.64
42669;BME280;29384;42.028;21.388;2022-08-02T02:09:36;98351.56;;;19.01;71.23
42669;BME280;29384;42.028;21.388;2022-08-02T02:12:02;98347.81;;;19.02;70.66
42669;BME280;29384;42.028;21.388;2022-08-02T02:14:28;98345.75;;;18.99;70.64
42669;BME280;29384;42.028;21.388;2022-08-02T02:16:55;98340.78;;;18.98;70.48
42669;BME280;29384;42.028;21.388;2022-08-02T02:19:23;98349.03;;;18.96;70.76
42669;BME280;29384;42.028;21.388;2022-08-02T02:21:50;98351.84;;;19.00;70.32
42669;BME280;29384;42.028;21.388;2022-08-02T02:24:15;98346.44;;;19.14;69.98
42669;BME280;29384;42.028;21.388;2022-08-02T02:26:41;98348.78;;;19.15;69.85
42669;BME280;29384;42.028;21.388;2022-08-02T02:29:09;98353.31;;;19.15;70.03
42669;BME280;29384;42.028;21.388;2022-08-02T02:31:38;98337.66;;;19.04;69.87
42669;BME280;29384;42.028;21.388;2022-08-02T02:34:13;98351.09;;;19.08;69.43
42669;BME280;29384;42.028;21.388;2022-08-02T02:36:44;98348.63;;;19.11;69.05
42669;BME280;29384;42.028;21.388;2022-08-02T02:39:11;98345.84;;;19.17;69.13
42669;BME280;29384;42.028;21.388;2022-08-02T02:41:38;98351.56;;;19.10;69.17
42669;BME280;29384;42.028;21.388;2022-08-02T02:44:06;98354.06;;;19.06;68.97
42669;BME280;29384;42.028;21.388;2022-08-02T02:46:34;98353.28;;;19.06;69.13
42669;BME280;29384;42.028;21.388;2022-08-02T02:49:00;98350.91;;;19.04;69.27
42669;BME280;29384;42.028;21.388;2022-08-02T02:51:26;98354.03;;;18.98;69.40
42669;BME280;29384;42.028;21.388;2022-08-02T02:53:52;98343.59;;;19.01;68.81
42669;BME280;29384;42.028;21.388;2022-08-02T02:56:20;98352.34;;;19.02;69.36
42669;BME280;29384;42.028;21.388;2022-08-02T02:58:47;98350.38;;;18.85;69.28
42669;BME280;29384;42.028;21.388;2022-08-02T03:01:13;98355.88;;;18.97;69.42
42669;BME280;29384;42.028;21.388;2022-08-02T03:04:00;98355.41;;;18.95;69.34
42669;BME280;29384;42.028;21.388;2022-08-02T03:06:27;98345.41;;;18.92;69.74
42669;BME280;29384;42.028;21.388;2022-08-02T03:08:53;98354.03;;;18.98;70.02
42669;BME280;29384;42.028;21.388;2022-08-02T03:11:19;98352.66;;;18.78;70.16
42669;BME280;29384;42.028;21.388;2022-08-02T03:13:44;98353.59;;;18.73;70.90
42669;BME280;29384;42.028;21.388;2022-08-02T03:16:11;98351.72;;;18.74;70.73
42669;BME280;29384;42.028;21.388;2022-08-02T03:18:42;98356.03;;;18.70;71.02
42669;BME280;29384;42.028;21.388;2022-08-02T03:21:11;98351.56;;;18.79;70.70
42669;BME280;29384;42.028;21.388;2022-08-02T03:23:38;98360.47;;;18.83;70.20
42669;BME280;29384;42.028;21.388;2022-08-02T03:26:04;98352.25;;;18.84;70.23
42669;BME280;29384;42.028;21.388;2022-08-02T03:28:30;98356.28;;;18.82;70.15
42669;BME280;29384;42.028;21.388;2022-08-02T03:30:55;98361.03;;;18.71;70.78
42669;BME280;29384;42.028;21.388;2022-08-02T03:33:23;98364.88;;;18.88;69.79
42669;BME280;29384;42.028;21.388;2022-08-02T03:39:11;98358.63;;;18.83;70.40
42669;BME280;29384;42.028;21.388;2022-08-02T03:41:37;98365.84;;;18.92;70.54
42669;BME280;29384;42.028;21.388;2022-08-02T03:44:04;98370.97;;;18.88;70.15
42669;BME280;29384;42.028;21.388;2022-08-02T03:46:32;98377.56;;;18.99;69.88
42669;BME280;29384;42.028;21.388;2022-08-02T03:48:58;98380.34;;;18.94;69.88
42669;BME280;29384;42.028;21.388;2022-08-02T03:51:25;98389.53;;;18.97;70.43
42669;BME280;29384;42.028;21.388;2022-08-02T03:53:51;98382.13;;;19.07;70.28
42669;BME280;29384;42.028;21.388;2022-08-02T03:56:17;98380.16;;;19.22;68.89
42669;BME280;29384;42.028;21.388;2022-08-02T03:58:43;98392.97;;;19.28;68.07
42669;BME280;29384;42.028;21.388;2022-08-02T04:01:09;98396.69;;;19.19;68.70
42669;BME280;29384;42.028;21.388;2022-08-02T04:03:34;98393.16;;;19.32;68.41
42669;BME280;29384;42.028;21.388;2022-08-02T04:05:59;98396.66;;;19.50;67.48
42669;BME280;29384;42.028;21.388;2022-08-02T04:08:25;98396.38;;;19.60;67.68
42669;BME280;29384;42.028;21.388;2022-08-02T04:10:50;98409.44;;;19.79;66.72
42669;BME280;29384;42.028;21.388;2022-08-02T04:13:39;98407.22;;;19.81;65.56
42669;BME280;29384;42.028;21.388;2022-08-02T04:16:31;98408.38;;;20.06;65.13
42669;BME280;29384;42.028;21.388;2022-08-02T04:19:03;98408.53;;;20.01;65.54
42669;BME280;29384;42.028;21.388;2022-08-02T04:21:36;98411.66;;;20.12;64.99
42669;BME280;29384;42.028;21.388;2022-08-02T04:24:03;98411.34;;;20.30;64.20
42669;BME280;29384;42.028;21.388;2022-08-02T04:26:31;98411.22;;;20.44;63.89
42669;BME280;29384;42.028;21.388;2022-08-02T04:28:57;98409.22;;;20.67;63.23
42669;BME280;29384;42.028;21.388;2022-08-02T04:31:24;98418.56;;;20.82;61.85
42669;BME280;29384;42.028;21.388;2022-08-02T04:33:49;98418.84;;;20.98;62.04
42669;BME280;29384;42.028;21.388;2022-08-02T04:36:15;98425.06;;;21.11;61.83
42669;BME280;29384;42.028;21.388;2022-08-02T04:38:41;98426.13;;;21.36;61.46
42669;BME280;29384;42.028;21.388;2022-08-02T04:41:07;98428.75;;;21.27;61.35
42669;BME280;29384;42.028;21.388;2022-08-02T04:43:32;98419.53;;;21.33;61.19
42669;BME280;29384;42.028;21.388;2022-08-02T04:45:58;98421.88;;;21.73;60.53
42669;BME280;29384;42.028;21.388;2022-08-02T04:48:27;98420.50;;;21.96;60.04
42669;BME280;29384;42.028;21.388;2022-08-02T04:54:14;98423.84;;;22.56;58.02
42669;BME280;29384;42.028;21.388;2022-08-02T04:56:40;98419.81;;;22.71;57.60
42669;BME280;29384;42.028;21.388;2022-08-02T04:59:05;98425.38;;;22.99;56.66
42669;BME280;29384;42.028;21.388;2022-08-02T05:01:31;98425.00;;;23.34;55.44
42669;BME280;29384;42.028;21.388;2022-08-02T05:03:57;98429.16;;;23.68;54.79
42669;BME280;29384;42.028;21.388;2022-08-02T05:06:23;98426.81;;;24.03;53.87
42669;BME280;29384;42.028;21.388;2022-08-02T05:08:49;98420.38;;;24.32;53.27
42669;BME280;29384;42.028;21.388;2022-08-02T05:11:14;98428.19;;;24.66;51.84
42669;BME280;29384;42.028;21.388;2022-08-02T05:13:40;98422.06;;;24.93;49.77
42669;BME280;29384;42.028;21.388;2022-08-02T05:16:06;98416.28;;;25.07;49.63
42669;BME280;29384;42.028;21.388;2022-08-02T05:18:31;98423.22;;;24.80;50.40
42669;BME280;29384;42.028;21.388;2022-08-02T05:24:18;98424.31;;;25.07;49.46
42669;BME280;29384;42.028;21.388;2022-08-02T05:26:44;98423.16;;;25.20;49.03
42669;BME280;29384;42.028;21.388;2022-08-02T05:29:09;98414.59;;;25.46;48.12
42669;BME280;29384;42.028;21.388;2022-08-02T05:31:35;98427.03;;;25.70;46.76
42669;BME280;29384;42.028;21.388;2022-08-02T05:34:00;98436.69;;;25.75;46.76
42669;BME280;29384;42.028;21.388;2022-08-02T05:36:26;98442.06;;;25.91;47.14
42669;BME280;29384;42.028;21.388;2022-08-02T05:38:51;98438.84;;;26.20;46.53
42669;BME280;29384;42.028;21.388;2022-08-02T05:41:17;98445.06;;;26.25;45.01
42669;BME280;29384;42.028;21.388;2022-08-02T05:43:44;98439.06;;;26.47;44.84
42669;BME280;29384;42.028;21.388;2022-08-02T05:46:10;98442.63;;;26.74;44.88
42669;BME280;29384;42.028;21.388;2022-08-02T05:48:35;98440.34;;;26.96;44.61
42669;BME280;29384;42.028;21.388;2022-08-02T05:57:04;98449.31;;;27.03;45.44
42669;BME280;29384;42.028;21.388;2022-08-02T06:02:29;98443.22;;;27.26;44.62
42669;BME280;29384;42.028;21.388;2022-08-02T06:05:06;98451.19;;;27.45;43.80
42669;BME280;29384;42.028;21.388;2022-08-02T06:07:37;98453.25;;;27.29;45.25
42669;BME280;29384;42.028;21.388;2022-08-02T06:10:05;98449.97;;;27.65;45.85
42669;BME280;29384;42.028;21.388;2022-08-02T06:12:34;98455.19;;;27.55;45.22
42669;BME280;29384;42.028;21.388;2022-08-02T06:15:04;98451.94;;;27.69;44.22
42669;BME280;29384;42.028;21.388;2022-08-02T06:17:31;98457.03;;;28.00;44.41
42669;BME280;29384;42.028;21.388;2022-08-02T06:19:59;98455.19;;;28.04;43.75
42669;BME280;29384;42.028;21.388;2022-08-02T06:22:26;98453.84;;;27.91;44.52
42669;BME280;29384;42.028;21.388;2022-08-02T06:24:53;98462.66;;;28.45;44.73
42669;BME280;29384;42.028;21.388;2022-08-02T06:27:20;98457.13;;;28.34;43.81
42669;BME280;29384;42.028;21.388;2022-08-02T06:29:48;98457.94;;;28.68;43.23
42669;BME280;29384;42.028;21.388;2022-08-02T06:32:17;98458.72;;;29.02;42.18
42669;BME280;29384;42.028;21.388;2022-08-02T06:34:44;98460.16;;;28.96;41.90
42669;BME280;29384;42.028;21.388;2022-08-02T06:38:01;98463.13;;;29.25;41.19
42669;BME280;29384;42.028;21.388;2022-08-02T06:40:44;98460.44;;;29.25;41.74
42669;BME280;29384;42.028;21.388;2022-08-02T06:43:30;98458.25;;;29.86;40.23
42669;BME280;29384;42.028;21.388;2022-08-02T06:45:59;98455.22;;;29.94;40.77
42669;BME280;29384;42.028;21.388;2022-08-02T06:48:24;98456.59;;;30.26;41.12
42669;BME280;29384;42.028;21.388;2022-08-02T06:50:50;98453.09;;;30.18;38.94
42669;BME280;29384;42.028;21.388;2022-08-02T06:53:15;98452.63;;;30.09;40.22
42669;BME280;29384;42.028;21.388;2022-08-02T06:55:41;98457.50;;;30.62;39.08
42669;BME280;29384;42.028;21.388;2022-08-02T06:58:06;98450.25;;;30.87;39.19
42669;BME280;29384;42.028;21.388;2022-08-02T07:00:32;98449.91;;;30.85;37.58
42669;BME280;29384;42.028;21.388;2022-08-02T07:02:57;98445.66;;;30.95;36.78
42669;BME280;29384;42.028;21.388;2022-08-02T07:05:23;98441.06;;;31.21;37.24
42669;BME280;29384;42.028;21.388;2022-08-02T07:07:49;98439.16;;;31.32;38.06
42669;BME280;29384;42.028;21.388;2022-08-02T07:10:14;98442.22;;;31.30;35.49
42669;BME280;29384;42.028;21.388;2022-08-02T07:12:40;98434.88;;;31.77;34.80
42669;BME280;29384;42.028;21.388;2022-08-02T07:15:07;98434.50;;;31.89;34.28
42669;BME280;29384;42.028;21.388;2022-08-02T07:17:34;98432.94;;;31.85;33.17
42669;BME280;29384;42.028;21.388;2022-08-02T07:20:00;98421.75;;;31.72;35.33
42669;BME280;29384;42.028;21.388;2022-08-02T07:22:26;98427.13;;;31.94;32.68
42669;BME280;29384;42.028;21.388;2022-08-02T07:24:57;98424.41;;;32.04;34.04
42669;BME280;29384;42.028;21.388;2022-08-02T07:27:23;98418.19;;;32.11;33.29
42669;BME280;29384;42.028;21.388;2022-08-02T07:29:49;98425.50;;;32.25;31.63
42669;BME280;29384;42.028;21.388;2022-08-02T07:32:16;98422.00;;;32.28;31.27
42669;BME280;29384;42.028;21.388;2022-08-02T07:34:43;98412.75;;;32.22;32.13
42669;BME280;29384;42.028;21.388;2022-08-02T07:37:09;98415.06;;;32.30;30.45
42669;BME280;29384;42.028;21.388;2022-08-02T07:39:34;98420.75;;;32.54;30.75
42669;BME280;29384;42.028;21.388;2022-08-02T07:42:00;98416.91;;;32.55;31.44
42669;BME280;29384;42.028;21.388;2022-08-02T07:44:25;98411.09;;;32.53;30.56
42669;BME280;29384;42.028;21.388;2022-08-02T07:46:55;98418.38;;;32.63;29.67
42669;BME280;29384;42.028;21.388;2022-08-02T07:49:21;98417.22;;;32.64;30.13
42669;BME280;29384;42.028;21.388;2022-08-02T07:55:09;98403.75;;;32.53;31.37
42669;BME280;29384;42.028;21.388;2022-08-02T07:57:35;98406.44;;;32.57;31.41
42669;BME280;29384;42.028;21.388;2022-08-02T08:00:03;98406.44;;;32.53;30.30
42669;BME280;29384;42.028;21.388;2022-08-02T08:02:29;98410.31;;;32.52;30.65
42669;BME280;29384;42.028;21.388;2022-08-02T08:04:55;98406.44;;;32.57;30.00
42669;BME280;29384;42.028;21.388;2022-08-02T08:07:20;98403.72;;;32.57;29.77
42669;BME280;29384;42.028;21.388;2022-08-02T08:09:46;98403.72;;;32.57;30.24
42669;BME280;29384;42.028;21.388;2022-08-02T08:12:12;98394.78;;;32.67;30.08
42669;BME280;29384;42.028;21.388;2022-08-02T08:14:40;98402.50;;;32.72;30.15
42669;BME280;29384;42.028;21.388;2022-08-02T08:17:06;98400.00;;;32.92;29.53
42669;BME280;29384;42.028;21.388;2022-08-02T08:19:32;98404.97;;;33.08;29.13
42669;BME280;29384;42.028;21.388;2022-08-02T08:25:19;98413.44;;;33.14;28.92
42669;BME280;29384;42.028;21.388;2022-08-02T08:27:48;98405.69;;;33.16;28.74
42669;BME280;29384;42.028;21.388;2022-08-02T08:30:15;98401.44;;;33.11;29.59
42669;BME280;29384;42.028;21.388;2022-08-02T08:32:40;98396.75;;;33.19;29.28
42669;BME280;29384;42.028;21.388;2022-08-02T08:35:06;98399.81;;;33.21;28.91
42669;BME280;29384;42.028;21.388;2022-08-02T08:37:35;98404.16;;;33.15;29.05
42669;BME280;29384;42.028;21.388;2022-08-02T08:40:06;98398.25;;;33.23;29.06
42669;BME280;29384;42.028;21.388;2022-08-02T08:42:33;98400.72;;;33.03;30.01
42669;BME280;29384;42.028;21.388;2022-08-02T08:45:00;98395.97;;;33.22;29.66
42669;BME280;29384;42.028;21.388;2022-08-02T08:47:33;98397.56;;;33.16;29.62
42669;BME280;29384;42.028;21.388;2022-08-02T08:50:02;98398.00;;;33.07;29.48
42669;BME280;29384;42.028;21.388;2022-08-02T08:52:34;98397.94;;;33.14;29.57
42669;BME280;29384;42.028;21.388;2022-08-02T08:55:01;98398.91;;;33.38;29.75
42669;BME280;29384;42.028;21.388;2022-08-02T08:57:29;98396.66;;;33.29;29.21
42669;BME280;29384;42.028;21.388;2022-08-02T08:59:55;98397.78;;;33.32;28.78
42669;BME280;29384;42.028;21.388;2022-08-02T09:02:22;98388.16;;;33.27;28.29
42669;BME280;29384;42.028;21.388;2022-08-02T09:04:48;98387.06;;;33.18;30.82
42669;BME280;29384;42.028;21.388;2022-08-02T09:10:42;98392.22;;;33.50;27.53
42669;BME280;29384;42.028;21.388;2022-08-02T09:15:58;98387.28;;;33.38;28.71
42669;BME280;29384;42.028;21.388;2022-08-02T09:18:34;98383.41;;;33.39;29.63
42669;BME280;29384;42.028;21.388;2022-08-02T09:21:01;98372.69;;;32.76;30.92
42669;BME280;29384;42.028;21.388;2022-08-02T09:23:44;98374.13;;;32.88;30.70
42669;BME280;29384;42.028;21.388;2022-08-02T09:26:15;98379.81;;;33.04;31.28
42669;BME280;29384;42.028;21.388;2022-08-02T09:28:43;98380.81;;;33.24;29.72
42669;BME280;29384;42.028;21.388;2022-08-02T09:31:21;98375.34;;;32.02;29.75
42669;BME280;29384;42.028;21.388;2022-08-02T09:33:52;98371.81;;;32.20;29.66
42669;BME280;29384;42.028;21.388;2022-08-02T09:36:19;98375.13;;;32.56;28.96
42669;BME280;29384;42.028;21.388;2022-08-02T09:39:06;98367.66;;;32.74;29.13
42669;BME280;29384;42.028;21.388;2022-08-02T09:41:40;98363.34;;;32.84;30.66
42669;BME280;29384;42.028;21.388;2022-08-02T09:44:08;98362.84;;;33.00;30.05
42669;BME280;29384;42.028;21.388;2022-08-02T09:46:45;98377.69;;;33.29;27.93
42669;BME280;29384;42.028;21.388;2022-08-02T09:49:12;98365.00;;;33.19;27.60
42669;BME280;29384;42.028;21.388;2022-08-02T09:51:49;98352.66;;;33.18;28.47
42669;BME280;29384;42.028;21.388;2022-08-02T09:54:22;98349.50;;;33.23;28.79
42669;BME280;29384;42.028;21.388;2022-08-02T09:56:48;98351.41;;;33.26;28.77
42669;BME280;29384;42.028;21.388;2022-08-02T09:59:16;98345.66;;;32.69;28.90
42669;BME280;29384;42.028;21.388;2022-08-02T10:01:44;98340.75;;;32.49;28.48
42669;BME280;29384;42.028;21.388;2022-08-02T10:04:12;98339.19;;;32.52;30.02
42669;BME280;29384;42.028;21.388;2022-08-02T10:06:40;98346.19;;;32.38;27.37
42669;BME280;29384;42.028;21.388;2022-08-02T10:09:07;98338.31;;;32.69;28.40
42669;BME280;29384;42.028;21.388;2022-08-02T10:11:33;98340.78;;;32.38;29.31
42669;BME280;29384;42.028;21.388;2022-08-02T10:14:01;98336.75;;;31.77;30.19
42669;BME280;29384;42.028;21.388;2022-08-02T10:16:28;98341.91;;;31.07;30.19
42669;BME280;29384;42.028;21.388;2022-08-02T10:18:54;98331.88;;;30.79;33.15
42669;BME280;29384;42.028;21.388;2022-08-02T10:21:57;98330.34;;;31.03;31.66
42669;BME280;29384;42.028;21.388;2022-08-02T10:24:31;98315.63;;;31.47;32.82
42669;BME280;29384;42.028;21.388;2022-08-02T10:26:58;98326.28;;;32.00;30.48
42669;BME280;29384;42.028;21.388;2022-08-02T10:29:29;98315.44;;;32.04;28.54
42669;BME280;29384;42.028;21.388;2022-08-02T10:32:05;98306.88;;;32.20;30.03
42669;BME280;29384;42.028;21.388;2022-08-02T10:34:35;98301.03;;;32.28;32.74
42669;BME280;29384;42.028;21.388;2022-08-02T10:37:03;98295.25;;;32.26;29.98
42669;BME280;29384;42.028;21.388;2022-08-02T10:39:40;98296.34;;;32.36;29.79
42669;BME280;29384;42.028;21.388;2022-08-02T10:42:06;98293.75;;;32.18;29.12
42669;BME280;29384;42.028;21.388;2022-08-02T10:44:33;98287.31;;;31.83;28.21
42669;BME280;29384;42.028;21.388;2022-08-02T10:47:28;98289.91;;;32.12;29.28
42669;BME280;29384;42.028;21.388;2022-08-02T10:49:59;98279.00;;;32.23;28.48
42669;BME280;29384;42.028;21.388;2022-08-02T10:52:30;98290.56;;;32.34;28.71
42669;BME280;29384;42.028;21.388;2022-08-02T10:55:22;98275.44;;;32.44;26.57
42669;BME280;29384;42.028;21.388;2022-08-02T10:58:15;98275.06;;;32.42;27.48
42669;BME280;29384;42.028;21.388;2022-08-02T11:00:41;98280.50;;;32.42;26.87
42669;BME280;29384;42.028;21.388;2022-08-02T11:09:28;98281.34;;;32.24;27.82
42669;BME280;29384;42.028;21.388;2022-08-02T11:12:15;98267.44;;;32.22;28.04
42669;BME280;29384;42.028;21.388;2022-08-02T11:14:43;98252.00;;;32.16;29.25
42669;BME280;29384;42.028;21.388;2022-08-02T11:17:14;98268.22;;;32.19;28.06
42669;BME280;29384;42.028;21.388;2022-08-02T11:25:54;98269.94;;;31.92;27.94
42669;BME280;29384;42.028;21.388;2022-08-02T11:28:19;98264.88;;;31.94;28.05
42669;BME280;29384;42.028;21.388;2022-08-02T11:30:55;98251.38;;;31.90;27.19
42669;BME280;29384;42.028;21.388;2022-08-02T11:33:29;98250.53;;;32.04;28.57
42669;BME280;29384;42.028;21.388;2022-08-02T11:36:00;98262.09;;;32.08;28.34
42669;BME280;29384;42.028;21.388;2022-08-02T11:38:26;98257.88;;;32.07;27.01
42669;BME280;29384;42.028;21.388;2022-08-02T11:40:51;98255.16;;;32.07;28.33
42669;BME280;29384;42.028;21.388;2022-08-02T11:43:26;98258.25;;;32.09;26.91
42669;BME280;29384;42.028;21.388;2022-08-02T11:45:52;98249.00;;;32.03;28.34
42669;BME280;29384;42.028;21.388;2022-08-02T11:48:34;98249.78;;;32.00;27.62
42669;BME280;29384;42.028;21.388;2022-08-02T11:51:14;98256.00;;;31.97;27.33
42669;BME280;29384;42.028;21.388;2022-08-02T11:53:49;98258.38;;;31.87;27.38
42669;BME280;29384;42.028;21.388;2022-08-02T11:56:17;98244.44;;;31.85;28.90
42669;BME280;29384;42.028;21.388;2022-08-02T11:59:06;98250.63;;;31.86;28.62
42669;BME280;29384;42.028;21.388;2022-08-02T12:01:34;98239.78;;;31.86;27.44
42669;BME280;29384;42.028;21.388;2022-08-02T12:04:01;98240.69;;;31.58;28.83
42669;BME280;29384;42.028;21.388;2022-08-02T12:06:27;98248.13;;;31.18;27.93
42669;BME280;29384;42.028;21.388;2022-08-02T12:11:27;98246.19;;;31.26;28.80
42669;BME280;29384;42.028;21.388;2022-08-02T12:13:52;98245.38;;;31.47;29.19
42669;BME280;29384;42.028;21.388;2022-08-02T12:16:18;98228.78;;;31.41;27.97
42669;BME280;29384;42.028;21.388;2022-08-02T12:19:02;98243.78;;;31.63;29.06
42669;BME280;29384;42.028;21.388;2022-08-02T12:21:44;98253.78;;;31.74;27.01
42669;BME280;29384;42.028;21.388;2022-08-02T12:24:10;98250.69;;;31.72;27.50
42669;BME280;29384;42.028;21.388;2022-08-02T12:26:43;98243.00;;;31.66;29.08
42669;BME280;29384;42.028;21.388;2022-08-02T12:29:09;98238.38;;;31.63;29.05
42669;BME280;29384;42.028;21.388;2022-08-02T12:31:43;98245.69;;;31.70;29.37
42669;BME280;29384;42.028;21.388;2022-08-02T12:34:14;98235.94;;;31.83;27.30
42669;BME280;29384;42.028;21.388;2022-08-02T12:37:08;98233.63;;;31.85;28.61
42669;BME280;29384;42.028;21.388;2022-08-02T12:39:39;98239.03;;;31.85;27.55
42669;BME280;29384;42.028;21.388;2022-08-02T12:42:07;98239.03;;;31.89;27.68
42669;BME280;29384;42.028;21.388;2022-08-02T12:44:36;98240.31;;;31.59;27.07
42669;BME280;29384;42.028;21.388;2022-08-02T12:47:07;98235.28;;;31.58;27.51
42669;BME280;29384;42.028;21.388;2022-08-02T12:49:36;98246.16;;;31.47;27.88
42669;BME280;29384;42.028;21.388;2022-08-02T12:52:20;98231.50;;;31.37;28.43
42669;BME280;29384;42.028;21.388;2022-08-02T12:54:46;98239.28;;;31.14;27.73
42669;BME280;29384;42.028;21.388;2022-08-02T12:57:16;98226.94;;;30.99;29.00
42669;BME280;29384;42.028;21.388;2022-08-02T12:59:49;98233.53;;;30.83;27.78
42669;BME280;29384;42.028;21.388;2022-08-02T13:02:15;98236.19;;;31.05;29.17
42669;BME280;29384;42.028;21.388;2022-08-02T13:04:42;98230.75;;;31.26;28.15
42669;BME280;29384;42.028;21.388;2022-08-02T13:07:08;98235.78;;;31.31;27.60
42669;BME280;29384;42.028;21.388;2022-08-02T13:09:38;98235.38;;;31.36;27.61
42669;BME280;29384;42.028;21.388;2022-08-02T13:12:05;98231.16;;;31.32;28.35
42669;BME280;29384;42.028;21.388;2022-08-02T13:14:32;98230.72;;;31.44;28.92
42669;BME280;29384;42.028;21.388;2022-08-02T13:16:58;98243.44;;;31.51;28.20
42669;BME280;29384;42.028;21.388;2022-08-02T13:19:23;98236.50;;;31.50;28.17
42669;BME280;29384;42.028;21.388;2022-08-02T13:21:49;98238.84;;;31.33;28.04
42669;BME280;29384;42.028;21.388;2022-08-02T13:24:15;98233.88;;;31.07;27.25
42669;BME280;29384;42.028;21.388;2022-08-02T13:26:43;98235.38;;;31.22;29.50
42669;BME280;29384;42.028;21.388;2022-08-02T13:29:10;98235.38;;;31.36;29.35
42669;BME280;29384;42.028;21.388;2022-08-02T13:31:37;98234.59;;;31.25;29.15
42669;BME280;29384;42.028;21.388;2022-08-02T13:34:06;98233.88;;;31.07;29.28
42669;BME280;29384;42.028;21.388;2022-08-02T13:36:34;98231.97;;;30.97;28.62
42669;BME280;29384;42.028;21.388;2022-08-02T13:39:00;98236.63;;;30.78;28.55
42669;BME280;29384;42.028;21.388;2022-08-02T13:41:27;98239.31;;;30.64;29.47
42669;BME280;29384;42.028;21.388;2022-08-02T13:43:53;98243.91;;;30.60;29.14
42669;BME280;29384;42.028;21.388;2022-08-02T13:46:18;98233.88;;;30.32;28.44
42669;BME280;29384;42.028;21.388;2022-08-02T13:48:44;98243.53;;;30.29;28.58
42669;BME280;29384;42.028;21.388;2022-08-02T13:51:10;98232.75;;;30.36;30.17
42669;BME280;29384;42.028;21.388;2022-08-02T13:57:00;98235.03;;;30.73;29.10
42669;BME280;29384;42.028;21.388;2022-08-02T13:59:25;98228.50;;;30.75;30.42
42669;BME280;29384;42.028;21.388;2022-08-02T14:01:52;98233.53;;;30.76;29.15
42669;BME280;29384;42.028;21.388;2022-08-02T14:04:18;98239.31;;;30.82;29.34